sensor_id;sensor_type;location;lat;lon;timestamp;temperature;humidity
26583;DHT22;14230;45.382;10.998;2023-03-03T00:01:38;6.10;99.90
26583;DHT22;14230;45.382;10.998;2023-03-03T00:04:12;6.10;99.90
26583;DHT22;14230;45.382;10.998;2023-03-03T00:06:41;6.10;99.90
26583;DHT22;14230;45.382;10.998;2023-03-03T00:09:11;6.20;99.90
26583;DHT22;14230;45.382;10.998;2023-03-03T00:11:42;6.10;99.90
26583;DHT22;14230;45.382;10.998;2023-03-03T00:14:29;6.00;99.90
26583;DHT22;14230;45.382;10.998;2023-03-03T00:17:10;6.00;99.90
26583;DHT22;14230;45.382;10.998;2023-03-03T00:19:40;6.00;99.90
26583;DHT22;14230;45.382;10.998;2023-03-03T00:22:28;5.90;99.90
26583;DHT22;14230;45.382;10.998;2023-03-03T00:25:31;5.90;99.90
26583;DHT22;14230;45.382;10.998;2023-03-03T00:28:19;5.90;99.90
26583;DHT22;14230;45.382;10.998;2023-03-03T00:31:00;5.90;99.90
26583;DHT22;14230;45.382;10.998;2023-03-03T00:33:39;6.00;99.90
26583;DHT22;14230;45.382;10.998;2023-03-03T00:39:34;5.90;99.90
26583;DHT22;14230;45.382;10.998;2023-03-03T00:42:17;5.80;99.90
26583;DHT22;14230;45.382;10.998;2023-03-03T00:44:58;5.80;99.90
26583;DHT22;14230;45.382;10.998;2023-03-03T00:47:27;5.70;99.90
26583;DHT22;14230;45.382;10.998;2023-03-03T00:52:56;5.80;99.90
26583;DHT22;14230;45.382;10.998;2023-03-03T00:55:32;5.70;99.90
26583;DHT22;14230;45.382;10.998;2023-03-03T00:58:00;5.80;99.90
26583;DHT22;14230;45.382;10.998;2023-03-03T01:00:40;5.80;99.90
26583;DHT22;14230;45.382;10.998;2023-03-03T01:03:20;5.80;99.90
26583;DHT22;14230;45.382;10.998;2023-03-03T01:05:53;5.70;99.90
26583;DHT22;14230;45.382;10.998;2023-03-03T01:08:21;5.70;99.90
26583;DHT22;14230;45.382;10.998;2023-03-03T01:10:55;5.80;99.90
26583;DHT22;14230;45.382;10.998;2023-03-03T01:13:30;5.80;99.90
26583;DHT22;14230;45.382;10.998;2023-03-03T01:16:12;5.80;99.90
26583;DHT22;14230;45.382;10.998;2023-03-03T01:18:42;5.70;99.90
26583;DHT22;14230;45.382;10.998;2023-03-03T01:21:10;5.60;99.90
26583;DHT22;14230;45.382;10.998;2023-03-03T01:23:38;5.60;99.90
26583;DHT22;14230;45.382;10.998;2023-03-03T01:26:07;5.70;99.90
26583;DHT22;14230;45.382;10.998;2023-03-03T01:28:35;5.70;99.90
26583;DHT22;14230;45.382;10.998;2023-03-03T01:31:04;5.80;99.90
26583;DHT22;14230;45.382;10.998;2023-03-03T01:33:36;5.70;99.90
26583;DHT22;14230;45.382;10.998;2023-03-03T01:36:14;5.80;99.90
26583;DHT22;14230;45.382;10.998;2023-03-03T01:38:46;5.70;99.90
26583;DHT22;14230;45.382;10.998;2023-03-03T01:41:22;5.70;99.90
26583;DHT22;14230;45.382;10.998;2023-03-03T01:44:00;5.70;99.90
26583;DHT22;14230;45.382;10.998;2023-03-03T01:47:24;5.60;99.90
26583;DHT22;14230;45.382;10.998;2023-03-03T01:50:08;5.50;99.90
26583;DHT22;14230;45.382;10.998;2023-03-03T01:52:45;5.50;99.90
26583;DHT22;14230;45.382;10.998;2023-03-03T01:55:19;5.50;99.90
26583;DHT22;14230;45.382;10.998;2023-03-03T01:57:58;5.60;99.90
26583;DHT22;14230;45.382;10.998;2023-03-03T02:00:38;5.60;99.90
26583;DHT22;14230;45.382;10.998;2023-03-03T02:03:10;5.50;99.90
26583;DHT22;14230;45.382;10.998;2023-03-03T02:05:41;5.50;99.90
26583;DHT22;14230;45.382;10.998;2023-03-03T02:08:15;5.50;99.90
26583;DHT22;14230;45.382;10.998;2023-03-03T02:10:48;5.50;99.90
26583;DHT22;14230;45.382;10.998;2023-03-03T02:13:17;5.60;99.90
26583;DHT22;14230;45.382;10.998;2023-03-03T02:15:45;5.60;99.90
26583;DHT22;14230;45.382;10.998;2023-03-03T02:18:18;5.60;99.90
26583;DHT22;14230;45.382;10.998;2023-03-03T02:23:45;5.50;99.90
26583;DHT22;14230;45.382;10.998;2023-03-03T02:26:27;5.50;99.90
26583;DHT22;14230;45.382;10.998;2023-03-03T02:29:03;5.50;99.90
26583;DHT22;14230;45.382;10.998;2023-03-03T02:31:34;5.50;99.90
26583;DHT22;14230;45.382;10.998;2023-03-03T02:34:06;5.40;99.90
26583;DHT22;14230;45.382;10.998;2023-03-03T02:36:41;5.40;99.90
26583;DHT22;14230;45.382;10.998;2023-03-03T02:39:20;5.50;99.90
26583;DHT22;14230;45.382;10.998;2023-03-03T02:42:01;5.50;99.90
26583;DHT22;14230;45.382;10.998;2023-03-03T02:44:37;5.50;99.90
26583;DHT22;14230;45.382;10.998;2023-03-03T02:47:05;5.50;99.90
26583;DHT22;14230;45.382;10.998;2023-03-03T02:49:36;5.40;99.90
26583;DHT22;14230;45.382;10.998;2023-03-03T02:52:06;5.30;99.90
26583;DHT22;14230;45.382;10.998;2023-03-03T02:54:38;5.40;99.90
26583;DHT22;14230;45.382;10.998;2023-03-03T02:57:09;5.40;99.90
26583;DHT22;14230;45.382;10.998;2023-03-03T02:59:38;5.40;99.90
26583;DHT22;14230;45.382;10.998;2023-03-03T03:02:13;5.40;99.90
26583;DHT22;14230;45.382;10.998;2023-03-03T03:04:41;5.30;99.90
26583;DHT22;14230;45.382;10.998;2023-03-03T03:07:15;5.30;99.90
26583;DHT22;14230;45.382;10.998;2023-03-03T03:09:43;5.20;99.90
26583;DHT22;14230;45.382;10.998;2023-03-03T03:12:26;5.20;99.90
26583;DHT22;14230;45.382;10.998;2023-03-03T03:14:56;5.30;99.90
26583;DHT22;14230;45.382;10.998;2023-03-03T03:17:24;5.30;99.90
26583;DHT22;14230;45.382;10.998;2023-03-03T03:19:58;5.30;99.90
26583;DHT22;14230;45.382;10.998;2023-03-03T03:22:26;5.30;99.90
26583;DHT22;14230;45.382;10.998;2023-03-03T03:24:54;5.30;99.90
26583;DHT22;14230;45.382;10.998;2023-03-03T03:27:22;5.30;99.90
26583;DHT22;14230;45.382;10.998;2023-03-03T03:29:51;5.30;99.90
26583;DHT22;14230;45.382;10.998;2023-03-03T03:32:20;5.20;99.90
26583;DHT22;14230;45.382;10.998;2023-03-03T03:34:53;5.20;99.90
26583;DHT22;14230;45.382;10.998;2023-03-03T03:37:21;5.10;99.90
26583;DHT22;14230;45.382;10.998;2023-03-03T03:39:50;5.20;99.90
26583;DHT22;14230;45.382;10.998;2023-03-03T03:42:19;5.10;99.90
26583;DHT22;14230;45.382;10.998;2023-03-03T03:44:47;5.10;99.90
26583;DHT22;14230;45.382;10.998;2023-03-03T03:47:18;5.00;99.90
26583;DHT22;14230;45.382;10.998;2023-03-03T03:49:46;5.00;99.90
26583;DHT22;14230;45.382;10.998;2023-03-03T03:52:14;5.00;99.90
26583;DHT22;14230;45.382;10.998;2023-03-03T03:54:42;5.00;99.90
26583;DHT22;14230;45.382;10.998;2023-03-03T03:57:10;4.90;99.90
26583;DHT22;14230;45.382;10.998;2023-03-03T03:59:38;4.90;99.90
26583;DHT22;14230;45.382;10.998;2023-03-03T04:02:06;4.80;99.90
26583;DHT22;14230;45.382;10.998;2023-03-03T04:04:34;4.70;99.90
26583;DHT22;14230;45.382;10.998;2023-03-03T04:07:02;4.60;99.90
26583;DHT22;14230;45.382;10.998;2023-03-03T04:09:31;4.60;99.90
26583;DHT22;14230;45.382;10.998;2023-03-03T04:12:00;4.60;99.90
26583;DHT22;14230;45.382;10.998;2023-03-03T04:14:30;4.50;99.90
26583;DHT22;14230;45.382;10.998;2023-03-03T04:16:58;4.40;99.90
26583;DHT22;14230;45.382;10.998;2023-03-03T04:19:26;4.50;99.90
26583;DHT22;14230;45.382;10.998;2023-03-03T04:21:55;4.50;99.90
26583;DHT22;14230;45.382;10.998;2023-03-03T04:24:23;4.40;99.90
26583;DHT22;14230;45.382;10.998;2023-03-03T04:26:52;4.40;99.90
26583;DHT22;14230;45.382;10.998;2023-03-03T04:29:20;4.30;99.90
26583;DHT22;14230;45.382;10.998;2023-03-03T04:31:48;4.30;99.90
26583;DHT22;14230;45.382;10.998;2023-03-03T04:34:17;4.20;99.90
26583;DHT22;14230;45.382;10.998;2023-03-03T04:36:45;4.20;99.90
26583;DHT22;14230;45.382;10.998;2023-03-03T04:39:13;4.30;99.90
26583;DHT22;14230;45.382;10.998;2023-03-03T04:41:40;4.30;99.90
26583;DHT22;14230;45.382;10.998;2023-03-03T04:44:09;4.30;99.90
26583;DHT22;14230;45.382;10.998;2023-03-03T04:46:36;4.20;99.90
26583;DHT22;14230;45.382;10.998;2023-03-03T04:49:04;4.20;99.90
26583;DHT22;14230;45.382;10.998;2023-03-03T04:51:37;4.30;99.90
26583;DHT22;14230;45.382;10.998;2023-03-03T04:54:09;4.20;99.90
26583;DHT22;14230;45.382;10.998;2023-03-03T04:56:36;4.20;99.90
26583;DHT22;14230;45.382;10.998;2023-03-03T04:59:04;4.20;99.90
26583;DHT22;14230;45.382;10.998;2023-03-03T05:01:33;4.20;99.90
26583;DHT22;14230;45.382;10.998;2023-03-03T05:04:02;4.20;99.90
26583;DHT22;14230;45.382;10.998;2023-03-03T05:06:30;4.30;99.90
26583;DHT22;14230;45.382;10.998;2023-03-03T05:09:01;4.30;99.90
26583;DHT22;14230;45.382;10.998;2023-03-03T05:11:29;4.20;99.90
26583;DHT22;14230;45.382;10.998;2023-03-03T05:13:57;4.10;99.90
26583;DHT22;14230;45.382;10.998;2023-03-03T05:16:28;4.00;99.90
26583;DHT22;14230;45.382;10.998;2023-03-03T05:18:56;4.00;99.90
26583;DHT22;14230;45.382;10.998;2023-03-03T05:21:23;4.10;99.90
26583;DHT22;14230;45.382;10.998;2023-03-03T05:23:52;3.90;99.90
26583;DHT22;14230;45.382;10.998;2023-03-03T05:26:20;3.80;99.90
26583;DHT22;14230;45.382;10.998;2023-03-03T05:28:48;3.50;99.90
26583;DHT22;14230;45.382;10.998;2023-03-03T05:31:15;3.40;99.90
26583;DHT22;14230;45.382;10.998;2023-03-03T05:33:43;3.40;99.90
26583;DHT22;14230;45.382;10.998;2023-03-03T05:36:14;3.40;99.90
26583;DHT22;14230;45.382;10.998;2023-03-03T05:38:43;3.40;99.90
26583;DHT22;14230;45.382;10.998;2023-03-03T05:41:11;3.40;99.90
26583;DHT22;14230;45.382;10.998;2023-03-03T05:43:42;3.40;99.90
26583;DHT22;14230;45.382;10.998;2023-03-03T05:46:10;3.40;99.90
26583;DHT22;14230;45.382;10.998;2023-03-03T05:48:38;3.50;99.90
26583;DHT22;14230;45.382;10.998;2023-03-03T05:51:06;3.60;99.90
26583;DHT22;14230;45.382;10.998;2023-03-03T05:53:33;3.50;99.90
26583;DHT22;14230;45.382;10.998;2023-03-03T05:56:01;3.60;99.90
26583;DHT22;14230;45.382;10.998;2023-03-03T05:58:31;3.60;99.90
26583;DHT22;14230;45.382;10.998;2023-03-03T06:00:59;3.70;99.90
26583;DHT22;14230;45.382;10.998;2023-03-03T06:03:27;3.80;99.90
26583;DHT22;14230;45.382;10.998;2023-03-03T06:06:00;4.00;99.90
26583;DHT22;14230;45.382;10.998;2023-03-03T06:08:28;4.00;99.90
26583;DHT22;14230;45.382;10.998;2023-03-03T06:10:58;4.20;99.90
26583;DHT22;14230;45.382;10.998;2023-03-03T06:13:26;4.40;99.90
26583;DHT22;14230;45.382;10.998;2023-03-03T06:15:53;4.70;99.90
26583;DHT22;14230;45.382;10.998;2023-03-03T06:18:21;5.00;99.90
26583;DHT22;14230;45.382;10.998;2023-03-03T06:20:52;5.40;99.90
26583;DHT22;14230;45.382;10.998;2023-03-03T06:23:21;6.00;99.90
26583;DHT22;14230;45.382;10.998;2023-03-03T06:25:48;6.50;99.90
26583;DHT22;14230;45.382;10.998;2023-03-03T06:28:16;7.10;99.90
26583;DHT22;14230;45.382;10.998;2023-03-03T06:30:43;7.50;99.90
26583;DHT22;14230;45.382;10.998;2023-03-03T06:33:11;7.90;99.90
26583;DHT22;14230;45.382;10.998;2023-03-03T06:35:38;8.30;99.90
26583;DHT22;14230;45.382;10.998;2023-03-03T06:38:05;8.30;99.90
26583;DHT22;14230;45.382;10.998;2023-03-03T06:40:33;8.40;99.90
26583;DHT22;14230;45.382;10.998;2023-03-03T06:43:00;8.90;99.90
26583;DHT22;14230;45.382;10.998;2023-03-03T06:45:29;9.20;99.90
26583;DHT22;14230;45.382;10.998;2023-03-03T06:47:56;9.80;99.90
26583;DHT22;14230;45.382;10.998;2023-03-03T06:50:24;10.50;99.90
26583;DHT22;14230;45.382;10.998;2023-03-03T06:55:39;11.80;99.90
26583;DHT22;14230;45.382;10.998;2023-03-03T06:58:18;12.40;99.90
26583;DHT22;14230;45.382;10.998;2023-03-03T07:00:57;12.90;99.90
26583;DHT22;14230;45.382;10.998;2023-03-03T07:03:29;13.50;99.90
26583;DHT22;14230;45.382;10.998;2023-03-03T07:05:59;14.10;99.90
26583;DHT22;14230;45.382;10.998;2023-03-03T07:08:30;14.40;99.90
26583;DHT22;14230;45.382;10.998;2023-03-03T07:11:06;15.10;99.90
26583;DHT22;14230;45.382;10.998;2023-03-03T07:13:36;15.50;99.90
26583;DHT22;14230;45.382;10.998;2023-03-03T07:16:11;16.30;99.90
26583;DHT22;14230;45.382;10.998;2023-03-03T07:18:51;16.30;99.90
26583;DHT22;14230;45.382;10.998;2023-03-03T07:21:30;16.00;99.90
26583;DHT22;14230;45.382;10.998;2023-03-03T07:24:01;16.20;99.90
26583;DHT22;14230;45.382;10.998;2023-03-03T07:26:37;16.40;99.90
26583;DHT22;14230;45.382;10.998;2023-03-03T07:31:50;16.60;99.90
26583;DHT22;14230;45.382;10.998;2023-03-03T07:34:39;16.90;99.90
26583;DHT22;14230;45.382;10.998;2023-03-03T07:37:16;17.40;99.90
26583;DHT22;14230;45.382;10.998;2023-03-03T07:39:46;17.50;99.90
26583;DHT22;14230;45.382;10.998;2023-03-03T07:42:38;17.00;99.90
26583;DHT22;14230;45.382;10.998;2023-03-03T07:45:35;17.00;99.90
26583;DHT22;14230;45.382;10.998;2023-03-03T07:48:19;17.30;99.90
26583;DHT22;14230;45.382;10.998;2023-03-03T07:50:51;17.40;99.90
26583;DHT22;14230;45.382;10.998;2023-03-03T07:53:26;17.20;99.90
26583;DHT22;14230;45.382;10.998;2023-03-03T07:55:55;17.20;99.90
26583;DHT22;14230;45.382;10.998;2023-03-03T07:58:38;16.90;99.90
26583;DHT22;14230;45.382;10.998;2023-03-03T08:03:50;16.90;99.90
26583;DHT22;14230;45.382;10.998;2023-03-03T08:06:41;17.30;99.90
26583;DHT22;14230;45.382;10.998;2023-03-03T08:11:52;18.20;99.90
26583;DHT22;14230;45.382;10.998;2023-03-03T08:14:27;18.80;99.90
26583;DHT22;14230;45.382;10.998;2023-03-03T08:16:56;19.00;99.90
26583;DHT22;14230;45.382;10.998;2023-03-03T08:19:29;19.60;99.90
26583;DHT22;14230;45.382;10.998;2023-03-03T08:22:01;20.20;99.90
26583;DHT22;14230;45.382;10.998;2023-03-03T08:24:33;20.60;99.90
26583;DHT22;14230;45.382;10.998;2023-03-03T08:27:02;20.90;99.90
26583;DHT22;14230;45.382;10.998;2023-03-03T08:29:29;19.70;99.90
26583;DHT22;14230;45.382;10.998;2023-03-03T08:31:56;19.10;99.90
26583;DHT22;14230;45.382;10.998;2023-03-03T08:34:24;18.50;99.90
26583;DHT22;14230;45.382;10.998;2023-03-03T08:36:52;18.20;99.90
26583;DHT22;14230;45.382;10.998;2023-03-03T08:39:19;18.10;99.90
26583;DHT22;14230;45.382;10.998;2023-03-03T08:41:46;18.30;99.90
26583;DHT22;14230;45.382;10.998;2023-03-03T08:44:14;18.40;99.90
26583;DHT22;14230;45.382;10.998;2023-03-03T08:46:41;18.80;99.90
26583;DHT22;14230;45.382;10.998;2023-03-03T08:49:10;19.00;99.90
26583;DHT22;14230;45.382;10.998;2023-03-03T08:51:38;18.90;99.90
26583;DHT22;14230;45.382;10.998;2023-03-03T08:54:06;18.50;99.90
26583;DHT22;14230;45.382;10.998;2023-03-03T08:56:33;18.60;99.90
26583;DHT22;14230;45.382;10.998;2023-03-03T08:59:01;18.80;99.90
26583;DHT22;14230;45.382;10.998;2023-03-03T09:01:33;18.70;99.90
26583;DHT22;14230;45.382;10.998;2023-03-03T09:04:01;18.60;99.90
26583;DHT22;14230;45.382;10.998;2023-03-03T09:06:29;18.40;99.90
26583;DHT22;14230;45.382;10.998;2023-03-03T09:08:56;18.50;99.90
26583;DHT22;14230;45.382;10.998;2023-03-03T09:11:26;19.20;99.90
26583;DHT22;14230;45.382;10.998;2023-03-03T09:16:38;20.30;99.90
26583;DHT22;14230;45.382;10.998;2023-03-03T09:21:51;20.10;98.70
26583;DHT22;14230;45.382;10.998;2023-03-03T09:24:26;20.00;99.00
26583;DHT22;14230;45.382;10.998;2023-03-03T09:26:57;20.30;98.10
26583;DHT22;14230;45.382;10.998;2023-03-03T09:29:26;20.30;98.10
26583;DHT22;14230;45.382;10.998;2023-03-03T09:34:46;20.90;97.20
26583;DHT22;14230;45.382;10.998;2023-03-03T09:37:33;20.50;97.80
26583;DHT22;14230;45.382;10.998;2023-03-03T09:43:07;21.50;96.60
26583;DHT22;14230;45.382;10.998;2023-03-03T09:46:03;21.90;95.60
26583;DHT22;14230;45.382;10.998;2023-03-03T10:00:08;21.70;94.60
26583;DHT22;14230;45.382;10.998;2023-03-03T10:12:00;19.80;96.80
26583;DHT22;14230;45.382;10.998;2023-03-03T10:17:20;19.70;97.20
26583;DHT22;14230;45.382;10.998;2023-03-03T10:22:53;19.70;97.50
26583;DHT22;14230;45.382;10.998;2023-03-03T10:36:57;18.20;98.50
26583;DHT22;14230;45.382;10.998;2023-03-03T10:39:35;18.00;99.40
26583;DHT22;14230;45.382;10.998;2023-03-03T10:53:26;18.00;99.30
26583;DHT22;14230;45.382;10.998;2023-03-03T10:58:54;18.00;99.60
26583;DHT22;14230;45.382;10.998;2023-03-03T11:07:00;18.50;99.50
26583;DHT22;14230;45.382;10.998;2023-03-03T11:15:51;19.40;98.20
26583;DHT22;14230;45.382;10.998;2023-03-03T11:18:06;18.80;98.20
26583;DHT22;14230;45.382;10.998;2023-03-03T11:23:28;18.20;99.70
26583;DHT22;14230;45.382;10.998;2023-03-03T11:41:51;17.10;99.90
26583;DHT22;14230;45.382;10.998;2023-03-03T11:44:21;17.20;99.90
26583;DHT22;14230;45.382;10.998;2023-03-03T11:46:55;17.20;99.90
26583;DHT22;14230;45.382;10.998;2023-03-03T11:52:20;17.20;99.90
26583;DHT22;14230;45.382;10.998;2023-03-03T11:54:55;17.10;99.90
26583;DHT22;14230;45.382;10.998;2023-03-03T12:00:20;17.00;99.90
26583;DHT22;14230;45.382;10.998;2023-03-03T12:03:24;16.60;99.90
26583;DHT22;14230;45.382;10.998;2023-03-03T12:14:10;17.10;99.90
26583;DHT22;14230;45.382;10.998;2023-03-03T12:30:39;16.40;99.90
26583;DHT22;14230;45.382;10.998;2023-03-03T12:33:32;16.50;99.90
26583;DHT22;14230;45.382;10.998;2023-03-03T12:41:30;16.50;99.90
26583;DHT22;14230;45.382;10.998;2023-03-03T12:46:53;16.20;99.90
26583;DHT22;14230;45.382;10.998;2023-03-03T13:06:47;16.50;99.90
26583;DHT22;14230;45.382;10.998;2023-03-03T13:14:56;16.60;99.90
26583;DHT22;14230;45.382;10.998;2023-03-03T13:17:39;16.70;99.90
26583;DHT22;14230;45.382;10.998;2023-03-03T13:23:29;16.70;99.90
26583;DHT22;14230;45.382;10.998;2023-03-03T13:26:02;16.80;99.90
26583;DHT22;14230;45.382;10.998;2023-03-03T13:31:20;16.60;99.70
26583;DHT22;14230;45.382;10.998;2023-03-03T13:33:59;16.70;99.70
26583;DHT22;14230;45.382;10.998;2023-03-03T13:36:42;16.80;99.80
26583;DHT22;14230;45.382;10.998;2023-03-03T13:41:48;17.00;99.30
26583;DHT22;14230;45.382;10.998;2023-03-03T13:44:43;17.10;99.30
26583;DHT22;14230;45.382;10.998;2023-03-03T13:58:52;16.70;98.90
26583;DHT22;14230;45.382;10.998;2023-03-03T14:01:34;16.60;99.00
26583;DHT22;14230;45.382;10.998;2023-03-03T14:04:33;16.40;99.30
26583;DHT22;14230;45.382;10.998;2023-03-03T14:07:18;16.40;99.70
26583;DHT22;14230;45.382;10.998;2023-03-03T14:10:08;16.50;99.90
26583;DHT22;14230;45.382;10.998;2023-03-03T14:12:50;16.60;99.10
26583;DHT22;14230;45.382;10.998;2023-03-03T14:18:28;16.50;99.70
26583;DHT22;14230;45.382;10.998;2023-03-03T14:21:06;16.40;99.90
26583;DHT22;14230;45.382;10.998;2023-03-03T14:24:32;16.40;99.90
26583;DHT22;14230;45.382;10.998;2023-03-03T14:26:57;16.20;99.90
26583;DHT22;14230;45.382;10.998;2023-03-03T14:32:01;15.90;99.90
26583;DHT22;14230;45.382;10.998;2023-03-03T14:34:38;15.80;99.90
26583;DHT22;14230;45.382;10.998;2023-03-03T14:37:28;15.70;99.90
26583;DHT22;14230;45.382;10.998;2023-03-03T14:40:10;15.60;99.90
26583;DHT22;14230;45.382;10.998;2023-03-03T14:43:00;15.50;99.90
26583;DHT22;14230;45.382;10.998;2023-03-03T14:45:39;15.40;99.90
26583;DHT22;14230;45.382;10.998;2023-03-03T14:48:23;15.40;99.90
26583;DHT22;14230;45.382;10.998;2023-03-03T14:53:29;15.20;99.90
26583;DHT22;14230;45.382;10.998;2023-03-03T14:56:34;15.20;99.90
26583;DHT22;14230;45.382;10.998;2023-03-03T14:59:19;15.10;99.90
26583;DHT22;14230;45.382;10.998;2023-03-03T15:01:57;15.00;99.90
26583;DHT22;14230;45.382;10.998;2023-03-03T15:04:27;15.00;99.90
26583;DHT22;14230;45.382;10.998;2023-03-03T15:06:57;14.90;99.90
26583;DHT22;14230;45.382;10.998;2023-03-03T15:12:36;14.80;99.90
26583;DHT22;14230;45.382;10.998;2023-03-03T15:17:43;14.70;99.90
26583;DHT22;14230;45.382;10.998;2023-03-03T15:21:18;14.60;99.90
26583;DHT22;14230;45.382;10.998;2023-03-03T15:30:11;14.60;99.90
26583;DHT22;14230;45.382;10.998;2023-03-03T15:35:50;14.60;99.90
26583;DHT22;14230;45.382;10.998;2023-03-03T15:38:33;14.60;99.90
26583;DHT22;14230;45.382;10.998;2023-03-03T15:50:27;14.30;99.90
26583;DHT22;14230;45.382;10.998;2023-03-03T15:56:03;14.20;99.90
26583;DHT22;14230;45.382;10.998;2023-03-03T16:01:32;14.20;99.90
26583;DHT22;14230;45.382;10.998;2023-03-03T16:04:12;14.20;99.90
26583;DHT22;14230;45.382;10.998;2023-03-03T16:12:24;14.10;99.90
26583;DHT22;14230;45.382;10.998;2023-03-03T16:20:31;13.90;99.90
26583;DHT22;14230;45.382;10.998;2023-03-03T16:26:22;13.90;99.90
26583;DHT22;14230;45.382;10.998;2023-03-03T16:40:59;13.40;99.90
26583;DHT22;14230;45.382;10.998;2023-03-03T16:43:47;13.20;99.90
26583;DHT22;14230;45.382;10.998;2023-03-03T16:46:37;13.10;99.90
26583;DHT22;14230;45.382;10.998;2023-03-03T16:49:29;13.10;99.90
26583;DHT22;14230;45.382;10.998;2023-03-03T16:52:12;13.00;99.90
26583;DHT22;14230;45.382;10.998;2023-03-03T17:00:34;12.60;99.90
26583;DHT22;14230;45.382;10.998;2023-03-03T17:06:31;12.40;99.90
26583;DHT22;14230;45.382;10.998;2023-03-03T17:09:17;12.30;99.90
26583;DHT22;14230;45.382;10.998;2023-03-03T17:15:04;12.20;99.90
26583;DHT22;14230;45.382;10.998;2023-03-03T17:26:55;11.80;99.90
26583;DHT22;14230;45.382;10.998;2023-03-03T17:29:38;11.70;99.90
26583;DHT22;14230;45.382;10.998;2023-03-03T17:34:46;11.50;99.90
26583;DHT22;14230;45.382;10.998;2023-03-03T17:45:32;11.20;99.90
26583;DHT22;14230;45.382;10.998;2023-03-03T17:51:07;11.30;99.90
26583;DHT22;14230;45.382;10.998;2023-03-03T17:53:44;11.20;99.90
26583;DHT22;14230;45.382;10.998;2023-03-03T17:56:30;11.10;99.90
26583;DHT22;14230;45.382;10.998;2023-03-03T17:59:14;11.00;99.90
26583;DHT22;14230;45.382;10.998;2023-03-03T18:24:36;10.70;99.90
26583;DHT22;14230;45.382;10.998;2023-03-03T18:32:57;10.50;99.90
26583;DHT22;14230;45.382;10.998;2023-03-03T18:35:44;10.50;99.90
26583;DHT22;14230;45.382;10.998;2023-03-03T18:48:52;10.20;99.90
26583;DHT22;14230;45.382;10.998;2023-03-03T18:57:14;10.10;99.90
26583;DHT22;14230;45.382;10.998;2023-03-03T19:00:13;10.10;99.90
26583;DHT22;14230;45.382;10.998;2023-03-03T19:02:53;10.00;99.90
26583;DHT22;14230;45.382;10.998;2023-03-03T19:05:36;9.90;99.90
26583;DHT22;14230;45.382;10.998;2023-03-03T19:08:17;9.80;99.90
26583;DHT22;14230;45.382;10.998;2023-03-03T19:10:58;9.80;99.90
26583;DHT22;14230;45.382;10.998;2023-03-03T19:16:04;9.60;99.90
26583;DHT22;14230;45.382;10.998;2023-03-03T19:23:58;9.40;99.90
26583;DHT22;14230;45.382;10.998;2023-03-03T19:37:25;9.10;99.90
26583;DHT22;14230;45.382;10.998;2023-03-03T19:47:56;9.10;99.90
26583;DHT22;14230;45.382;10.998;2023-03-03T19:56:15;9.00;99.90
26583;DHT22;14230;45.382;10.998;2023-03-03T19:58:53;8.90;99.90
26583;DHT22;14230;45.382;10.998;2023-03-03T20:01:23;8.90;99.90
26583;DHT22;14230;45.382;10.998;2023-03-03T20:09:17;8.80;99.90
26583;DHT22;14230;45.382;10.998;2023-03-03T20:12:02;8.80;99.90
26583;DHT22;14230;45.382;10.998;2023-03-03T20:14:48;8.80;99.90
26583;DHT22;14230;45.382;10.998;2023-03-03T20:17:29;8.80;99.90
26583;DHT22;14230;45.382;10.998;2023-03-03T20:20:35;8.80;99.90
26583;DHT22;14230;45.382;10.998;2023-03-03T20:23:41;8.80;99.90
26583;DHT22;14230;45.382;10.998;2023-03-03T20:26:32;8.80;99.90
26583;DHT22;14230;45.382;10.998;2023-03-03T20:35:02;8.70;99.90
26583;DHT22;14230;45.382;10.998;2023-03-03T20:38:07;8.60;99.90
26583;DHT22;14230;45.382;10.998;2023-03-03T20:41:07;8.50;99.90
26583;DHT22;14230;45.382;10.998;2023-03-03T20:43:59;8.50;99.90
26583;DHT22;14230;45.382;10.998;2023-03-03T20:46:40;8.50;99.90
26583;DHT22;14230;45.382;10.998;2023-03-03T20:52:36;8.50;99.90
26583;DHT22;14230;45.382;10.998;2023-03-03T20:55:31;8.50;99.90
26583;DHT22;14230;45.382;10.998;2023-03-03T21:00:56;8.60;99.90
26583;DHT22;14230;45.382;10.998;2023-03-03T21:03:35;8.70;99.90
26583;DHT22;14230;45.382;10.998;2023-03-03T21:06:12;8.60;99.90
26583;DHT22;14230;45.382;10.998;2023-03-03T21:08:51;8.60;99.90
26583;DHT22;14230;45.382;10.998;2023-03-03T21:11:39;8.60;99.90
26583;DHT22;14230;45.382;10.998;2023-03-03T21:14:34;8.50;99.90
26583;DHT22;14230;45.382;10.998;2023-03-03T21:17:25;8.50;99.90
26583;DHT22;14230;45.382;10.998;2023-03-03T21:19:53;8.60;99.90
26583;DHT22;14230;45.382;10.998;2023-03-03T21:22:20;8.60;99.90
26583;DHT22;14230;45.382;10.998;2023-03-03T21:24:51;8.60;99.90
26583;DHT22;14230;45.382;10.998;2023-03-03T21:27:33;8.60;99.90
26583;DHT22;14230;45.382;10.998;2023-03-03T21:30:10;8.50;99.90
26583;DHT22;14230;45.382;10.998;2023-03-03T21:32:46;8.50;99.90
26583;DHT22;14230;45.382;10.998;2023-03-03T21:35:19;8.40;99.90
26583;DHT22;14230;45.382;10.998;2023-03-03T21:37:51;8.40;99.90
26583;DHT22;14230;45.382;10.998;2023-03-03T21:42:47;8.40;99.90
26583;DHT22;14230;45.382;10.998;2023-03-03T21:45:15;8.40;99.90
26583;DHT22;14230;45.382;10.998;2023-03-03T21:47:43;8.40;99.90
26583;DHT22;14230;45.382;10.998;2023-03-03T21:50:10;8.40;99.90
26583;DHT22;14230;45.382;10.998;2023-03-03T21:52:38;8.40;99.90
26583;DHT22;14230;45.382;10.998;2023-03-03T21:55:06;8.40;99.90
26583;DHT22;14230;45.382;10.998;2023-03-03T21:57:33;8.50;99.90
26583;DHT22;14230;45.382;10.998;2023-03-03T22:00:03;8.50;99.90
26583;DHT22;14230;45.382;10.998;2023-03-03T22:02:34;8.50;99.90
26583;DHT22;14230;45.382;10.998;2023-03-03T22:05:02;8.50;99.90
26583;DHT22;14230;45.382;10.998;2023-03-03T22:07:31;8.60;99.90
26583;DHT22;14230;45.382;10.998;2023-03-03T22:09:58;8.50;99.90
26583;DHT22;14230;45.382;10.998;2023-03-03T22:12:25;8.60;99.90
26583;DHT22;14230;45.382;10.998;2023-03-03T22:14:53;8.60;99.90
26583;DHT22;14230;45.382;10.998;2023-03-03T22:17:20;8.60;99.90
26583;DHT22;14230;45.382;10.998;2023-03-03T22:19:51;8.60;99.90
26583;DHT22;14230;45.382;10.998;2023-03-03T22:22:19;8.60;99.90
26583;DHT22;14230;45.382;10.998;2023-03-03T22:24:46;8.60;99.90
26583;DHT22;14230;45.382;10.998;2023-03-03T22:27:14;8.60;99.90
26583;DHT22;14230;45.382;10.998;2023-03-03T22:29:41;8.60;99.90
26583;DHT22;14230;45.382;10.998;2023-03-03T22:32:08;8.50;99.90
26583;DHT22;14230;45.382;10.998;2023-03-03T22:34:36;8.50;99.90
26583;DHT22;14230;45.382;10.998;2023-03-03T22:37:04;8.50;99.90
26583;DHT22;14230;45.382;10.998;2023-03-03T22:39:31;8.50;99.90
26583;DHT22;14230;45.382;10.998;2023-03-03T22:41:58;8.50;99.90